Time,TemperatureF,DewpointF,PressureIn,WindDirection,WindDirectionDegrees,WindSpeedMPH,WindSpeedGustMPH,Humidity,HourlyPrecipIn,Conditions,Clouds,dailyrainin,SoftwareType,DateUTC
2013-06-23 00:09:00,57.4,56.8,29.86,West,270,0.0,-999.0,98,-99.99,,,0.00,Acu-Link.com,2013-06-23 07:09:00,
2013-06-23 00:24:00,57.6,57.0,29.84,West,270,0.0,-999.0,98,-99.99,,,0.00,Acu-Link.com,2013-06-23 07:24:00,
2013-06-23 00:39:00,57.6,57.0,29.83,SE,135,0.0,-999.0,98,-99.99,,,0.00,Acu-Link.com,2013-06-23 07:39:00,
2013-06-23 00:54:00,57.7,57.1,29.84,West,270,1.7,-999.0,98,-99.99,,,0.00,Acu-Link.com,2013-06-23 07:54:00,
2013-06-23 01:10:00,57.4,56.8,29.84,WNW,292,0.0,-999.0,98,-99.99,,,0.00,Acu-Link.com,2013-06-23 08:10:00,
2013-06-23 01:25:00,57.2,56.6,29.84,West,270,0.0,-999.0,98,-99.99,,,0.00,Acu-Link.com,2013-06-23 08:25:00,
2013-06-23 01:40:00,56.5,55.9,29.83,NE,45,0.0,-999.0,98,-99.99,,,0.00,Acu-Link.com,2013-06-23 08:40:00,
2013-06-23 01:55:00,56.3,55.7,29.84,NNW,337,0.0,-999.0,98,-99.99,,,0.00,Acu-Link.com,2013-06-23 08:55:00,
2013-06-23 02:10:00,55.9,55.3,29.82,ENE,67,0.0,-999.0,98,-99.99,,,0.00,Acu-Link.com,2013-06-23 09:10:00,
2013-06-23 02:25:00,56.3,47.4,29.81,NE,45,1.7,-999.0,72,-99.99,,,0.00,Acu-Link.com,2013-06-23 09:25:00,
2013-06-23 02:41:00,56.5,46.1,29.81,NNE,22,0.0,-999.0,68,-99.99,,,0.00,Acu-Link.com,2013-06-23 09:41:00,
2013-06-23 02:56:00,56.1,44.9,29.81,NNW,337,0.0,-999.0,66,-99.99,,,0.00,Acu-Link.com,2013-06-23 09:56:00,
2013-06-23 03:11:00,55.4,42.6,29.82,NE,45,0.0,-999.0,62,-99.99,,,0.00,Acu-Link.com,2013-06-23 10:11:00,
2013-06-23 03:26:00,54.7,41.1,29.80,ENE,67,0.0,-999.0,60,-99.99,,,0.00,Acu-Link.com,2013-06-23 10:26:00,
2013-06-23 03:41:00,54.3,40.7,29.81,ENE,67,0.0,-999.0,60,-99.99,,,0.00,Acu-Link.com,2013-06-23 10:41:00,
2013-06-23 03:56:00,54.3,39.4,29.80,NE,45,0.0,-999.0,57,-99.99,,,0.00,Acu-Link.com,2013-06-23 10:56:00,
2013-06-23 04:11:00,53.6,45.2,29.80,East,90,0.0,-999.0,73,-99.99,,,0.00,Acu-Link.com,2013-06-23 11:11:00,
2013-06-23 04:26:00,52.9,40.2,29.79,ENE,67,0.0,-999.0,62,-99.99,,,0.00,Acu-Link.com,2013-06-23 11:26:00,
2013-06-23 04:41:00,52.3,41.3,29.79,NE,45,0.0,-999.0,66,-99.99,,,0.00,Acu-Link.com,2013-06-23 11:41:00,
2013-06-23 04:57:00,53.1,39.6,29.79,NE,45,0.0,-999.0,60,-99.99,,,0.00,Acu-Link.com,2013-06-23 11:57:00,
2013-06-23 05:12:00,53.2,39.2,29.80,NE,45,0.0,-999.0,59,-99.99,,,0.00,Acu-Link.com,2013-06-23 12:12:00,
2013-06-23 05:27:00,53.2,40.9,29.79,North,0,0.0,-999.0,63,-99.99,,,0.00,Acu-Link.com,2013-06-23 12:27:00,
2013-06-23 05:42:00,53.6,43.3,29.79,ENE,67,0.0,-999.0,68,-99.99,,,0.00,Acu-Link.com,2013-06-23 12:42:00,
2013-06-23 05:57:00,53.4,45.7,29.79,East,90,0.0,-999.0,75,-99.99,,,0.00,Acu-Link.com,2013-06-23 12:57:00,
2013-06-23 06:12:00,53.4,49.3,29.80,NE,45,0.0,-999.0,86,-99.99,,,0.00,Acu-Link.com,2013-06-23 13:12:00,
2013-06-23 06:27:00,54.0,53.4,29.79,ENE,67,0.0,-999.0,98,-99.99,,,0.00,Acu-Link.com,2013-06-23 13:27:00,
2013-06-23 06:42:00,54.3,53.7,29.79,WNW,292,0.0,-999.0,98,-99.99,,,0.00,Acu-Link.com,2013-06-23 13:42:00,
2013-06-23 06:57:00,55.6,55.0,29.79,NNW,337,0.0,-999.0,98,-99.99,,,0.00,Acu-Link.com,2013-06-23 13:57:00,
2013-06-23 07:13:00,55.9,53.0,29.79,NW,315,0.0,-999.0,90,-99.99,,,0.00,Acu-Link.com,2013-06-23 14:13:00,
2013-06-23 07:28:00,56.7,49.9,29.81,SSE,157,0.0,-999.0,78,-99.99,,,0.00,Acu-Link.com,2013-06-23 14:28:00,
2013-06-23 07:43:00,57.9,47.4,29.80,SSW,202,2.7,-999.0,68,-99.99,,,0.00,Acu-Link.com,2013-06-23 14:43:00,
2013-06-23 07:58:00,59.5,44.7,29.83,SW,225,0.0,-999.0,58,-99.99,,,0.00,Acu-Link.com,2013-06-23 14:58:00,
2013-06-23 08:15:00,60.4,43.2,29.80,SW,225,0.0,-999.0,53,-99.99,,,0.00,Acu-Link.com,2013-06-23 15:15:00,
2013-06-23 08:45:00,63.3,42.7,29.80,WSW,247,0.0,-999.0,47,-99.99,,,0.00,Acu-Link.com,2013-06-23 15:45:00,
2013-06-23 09:16:00,66.0,46.8,29.83,NNW,337,2.2,-999.0,50,-99.99,,,0.00,Acu-Link.com,2013-06-23 16:16:00,
2013-06-23 09:46:00,69.4,39.0,29.81,SW,225,1.1,-999.0,33,-99.99,,,0.00,Acu-Link.com,2013-06-23 16:46:00,
2013-06-23 10:16:00,70.0,42.5,29.80,WSW,247,4.7,-999.0,37,-99.99,,,0.00,Acu-Link.com,2013-06-23 17:16:00,
2013-06-23 10:31:00,72.7,42.7,29.80,West,270,4.7,-999.0,34,-99.99,,,0.00,Acu-Link.com,2013-06-23 17:31:00,
2013-06-23 10:47:00,75.2,41.6,29.80,SW,225,2.7,-999.0,30,-99.99,,,0.00,Acu-Link.com,2013-06-23 17:47:00,
2013-06-23 11:02:00,77.5,41.8,29.81,WSW,247,5.3,-999.0,28,-99.99,,,0.00,Acu-Link.com,2013-06-23 18:02:00,
2013-06-23 11:17:00,76.8,43.0,29.81,SSE,157,4.2,-999.0,30,-99.99,,,0.00,Acu-Link.com,2013-06-23 18:17:00,
2013-06-23 11:32:00,77.9,42.2,29.80,South,180,2.7,-999.0,28,-99.99,,,0.00,Acu-Link.com,2013-06-23 18:32:00,
2013-06-23 11:47:00,77.7,46.3,29.81,West,270,4.2,-999.0,33,-99.99,,,0.00,Acu-Link.com,2013-06-23 18:47:00,
2013-06-23 12:02:00,78.6,48.6,29.82,SW,225,2.2,-999.0,35,-99.99,,,0.00,Acu-Link.com,2013-06-23 19:02:00,
2013-06-23 12:17:00,77.4,46.8,29.82,South,180,0.0,-999.0,34,-99.99,,,0.00,Acu-Link.com,2013-06-23 19:17:00,
2013-06-23 12:32:00,77.2,47.4,29.82,NW,315,2.7,-999.0,35,-99.99,,,0.00,Acu-Link.com,2013-06-23 19:32:00,
2013-06-23 12:47:00,77.0,45.7,29.82,NE,45,6.3,-999.0,33,-99.99,,,0.00,Acu-Link.com,2013-06-23 19:47:00,
2013-06-23 13:03:00,76.6,41.9,29.81,SSE,157,4.2,-999.0,29,-99.99,,,0.00,Acu-Link.com,2013-06-23 20:03:00,
2013-06-23 13:18:00,79.5,43.5,29.81,WNW,292,3.2,-999.0,28,-99.99,,,0.00,Acu-Link.com,2013-06-23 20:18:00,
2013-06-23 13:33:00,79.3,41.4,29.81,SSE,157,4.7,-999.0,26,-99.99,,,0.00,Acu-Link.com,2013-06-23 20:33:00,
2013-06-23 13:48:00,80.4,41.3,29.80,West,270,2.7,-999.0,25,-99.99,,,0.00,Acu-Link.com,2013-06-23 20:48:00,
2013-06-23 14:03:00,83.3,39.3,29.81,North,0,4.7,-999.0,21,-99.99,,,0.00,Acu-Link.com,2013-06-23 21:03:00,
2013-06-23 14:18:00,76.6,41.9,29.80,WNW,292,7.8,-999.0,29,-99.99,,,0.00,Acu-Link.com,2013-06-23 21:18:00,
2013-06-23 14:33:00,80.6,41.5,29.80,WSW,247,3.7,-999.0,25,-99.99,,,0.00,Acu-Link.com,2013-06-23 21:33:00,
2013-06-23 14:48:00,77.7,40.1,29.81,SSW,202,3.2,-999.0,26,-99.99,,,0.00,Acu-Link.com,2013-06-23 21:48:00,
2013-06-23 15:03:00,76.3,41.7,29.82,SSW,202,5.8,-999.0,29,-99.99,,,0.00,Acu-Link.com,2013-06-23 22:03:00,
2013-06-23 15:18:00,75.6,44.5,29.80,SSW,202,5.3,-999.0,33,-99.99,,,0.00,Acu-Link.com,2013-06-23 22:18:00,
2013-06-23 15:34:00,78.4,45.2,29.79,SW,225,5.3,-999.0,31,-99.99,,,0.00,Acu-Link.com,2013-06-23 22:34:00,
2013-06-23 15:49:00,76.3,44.3,29.79,SSW,202,0.0,-999.0,32,-99.99,,,0.00,Acu-Link.com,2013-06-23 22:49:00,
2013-06-23 16:04:00,76.1,43.3,29.80,SSW,202,2.2,-999.0,31,-99.99,,,0.00,Acu-Link.com,2013-06-23 23:04:00,
2013-06-23 16:19:00,72.5,42.5,29.79,South,180,3.7,-999.0,34,-99.99,,,0.00,Acu-Link.com,2013-06-23 23:19:00,
2013-06-23 16:34:00,70.5,44.3,29.78,WNW,292,4.2,-999.0,39,-99.99,,,0.00,Acu-Link.com,2013-06-23 23:34:00,
2013-06-23 16:49:00,70.0,45.2,29.77,SSW,202,3.2,-999.0,41,-99.99,,,0.00,Acu-Link.com,2013-06-23 23:49:00,
2013-06-23 17:04:00,71.8,45.5,29.77,WNW,292,3.7,-999.0,39,-99.99,,,0.00,Acu-Link.com,2013-06-24 00:04:00,
2013-06-23 17:19:00,68.7,47.1,29.77,WSW,247,2.2,-999.0,46,-99.99,,,0.00,Acu-Link.com,2013-06-24 00:19:00,
2013-06-23 17:34:00,67.8,47.4,29.76,SE,135,2.7,-999.0,48,-99.99,,,0.00,Acu-Link.com,2013-06-24 00:34:00,
2013-06-23 17:50:00,65.8,49.7,29.75,SSW,202,3.7,-999.0,56,-99.99,,,0.00,Acu-Link.com,2013-06-24 00:50:00,
2013-06-23 18:05:00,64.9,49.8,29.75,WNW,292,6.3,-999.0,58,-99.99,,,0.00,Acu-Link.com,2013-06-24 01:05:00,
2013-06-23 18:20:00,63.9,50.6,29.76,SSE,157,4.7,-999.0,62,-99.99,,,0.00,Acu-Link.com,2013-06-24 01:20:00,
2013-06-23 18:35:00,63.0,51.0,29.75,South,180,3.2,-999.0,65,-99.99,,,0.00,Acu-Link.com,2013-06-24 01:35:00,
2013-06-23 18:50:00,62.2,51.5,29.76,SSW,202,5.8,-999.0,68,-99.99,,,0.00,Acu-Link.com,2013-06-24 01:50:00,
2013-06-23 19:05:00,62.6,53.1,29.75,ESE,112,6.8,-999.0,71,-99.99,,,0.00,Acu-Link.com,2013-06-24 02:05:00,
2013-06-23 19:20:00,61.3,54.0,29.77,NNW,337,0.0,-999.0,77,-99.99,,,0.00,Acu-Link.com,2013-06-24 02:20:00,
2013-06-23 19:35:00,60.3,54.8,29.76,SW,225,1.7,-999.0,82,-99.99,,,0.00,Acu-Link.com,2013-06-24 02:35:00,
2013-06-23 19:50:00,59.0,53.5,29.76,North,0,2.2,-999.0,82,-99.99,,,0.00,Acu-Link.com,2013-06-24 02:50:00,
2013-06-23 20:06:00,58.5,54.6,29.75,West,270,4.7,-999.0,87,-99.99,,,0.00,Acu-Link.com,2013-06-24 03:06:00,
2013-06-23 20:21:00,58.3,53.5,29.75,West,270,1.7,-999.0,84,-99.99,,,0.00,Acu-Link.com,2013-06-24 03:21:00,
2013-06-23 20:36:00,58.8,46.6,29.75,WSW,247,4.2,-999.0,64,-99.99,,,0.00,Acu-Link.com,2013-06-24 03:36:00,
2013-06-23 20:51:00,58.6,51.1,29.75,NW,315,0.0,-999.0,76,-99.99,,,0.00,Acu-Link.com,2013-06-24 03:51:00,
2013-06-23 21:06:00,57.9,51.4,29.76,West,270,0.0,-999.0,79,-99.99,,,0.00,Acu-Link.com,2013-06-24 04:06:00,
2013-06-23 21:21:00,57.7,56.6,29.76,NW,315,4.2,-999.0,96,-99.99,,,0.00,Acu-Link.com,2013-06-24 04:21:00,
2013-06-23 21:36:00,57.6,57.0,29.76,West,270,3.2,-999.0,98,-99.99,,,0.00,Acu-Link.com,2013-06-24 04:36:00,
2013-06-23 21:51:00,57.2,56.6,29.76,WNW,292,1.7,-999.0,98,-99.99,,,0.00,Acu-Link.com,2013-06-24 04:51:00,
2013-06-23 22:06:00,56.8,56.2,29.78,ESE,112,2.7,-999.0,98,-99.99,,,0.00,Acu-Link.com,2013-06-24 05:06:00,
2013-06-23 22:22:00,56.7,56.1,29.78,West,270,2.7,-999.0,98,-99.99,,,0.00,Acu-Link.com,2013-06-24 05:22:00,
2013-06-23 22:37:00,56.3,55.7,29.77,WNW,292,0.0,-999.0,98,-99.99,,,0.00,Acu-Link.com,2013-06-24 05:37:00,
2013-06-23 22:52:00,56.1,55.5,29.77,WNW,292,1.7,-999.0,98,-99.99,,,0.00,Acu-Link.com,2013-06-24 05:52:00,
2013-06-23 23:07:00,56.1,55.5,29.77,SSW,202,2.7,-999.0,98,-99.99,,,0.00,Acu-Link.com,2013-06-24 06:07:00,
2013-06-23 23:22:00,55.8,55.2,29.76,WSW,247,0.0,-999.0,98,-99.99,,,0.00,Acu-Link.com,2013-06-24 06:22:00,
2013-06-23 23:37:00,55.8,55.2,29.77,WNW,292,3.7,-999.0,98,-99.99,,,0.00,Acu-Link.com,2013-06-24 06:37:00,
2013-06-23 23:52:00,55.9,55.3,29.75,West,270,2.2,-999.0,98,-99.99,,,0.00,Acu-Link.com,2013-06-24 06:52:00,